PWSweather.com
Personal Weather Stations
Station Observations
MODESTO21
East Modesto Ca, Modesto, CA 95355

East Modesto CaModesto, CA 95355

Lat: 37.658055, Lon: -120.94719199999997

Elevation: 88

Station Type: AcuRite 01036CADI

Latest ConditionsUpdated 3:18:03 AM PDT Saturday, May 25, 2019
Currently Today's Max Today's Min Today's Average
Temperature 57.9°F14.4°C 62.1°F16.7°C 57.4°F14.1°C 59.1°F15.1°C
Dew Point 55.0°F12.8°C 57.3°F14.1°C 55.0°F12.8°C 56.1°F13.4°C
Winds 1.7 mph NNW2.7 kmh NNW 5.8 mph -9.3 kmh - - 0.9 mph 1.4 kmh
Wind Gusts 3.7 mph6.0 kmh 5.8 mph9.3 kmh - -
Humidity 90% 94% 83% 90%
Pressure 29.82 in1009.8 mb 29.89 in1012.2 mb 29.82 in1009.8 mb -
Hour Temp Dew Point Humidity Winds Wind Gusts Pressure Precip Precip Rate Daily Precip Total
03:18 AM 57.9°F14.4°C 55.0°F12.8°C 90% 1.7 mph NNW2.7 kmh NNW 3.7 mph6.0 kmh 29.82 in1009.8 mb 0.00 in0.0 mm 0.00 in0.0 mm 0.00 in0.0 mm
03:17 AM 57.9°F14.4°C 55.0°F12.8°C 90% 2.2 mph W3.5 kmh W 3.7 mph6.0 kmh 29.82 in1009.8 mb 0.00 in0.0 mm 0.00 in0.0 mm 0.00 in0.0 mm
03:16 AM 57.9°F14.4°C 55.0°F12.8°C 90% 2.7 mph WNW4.3 kmh WNW 4.7 mph7.6 kmh 29.82 in1009.8 mb 0.00 in0.0 mm 0.00 in0.0 mm 0.00 in0.0 mm
03:15 AM 57.9°F14.4°C 55.0°F12.8°C 90% 2.2 mph WNW3.5 kmh WNW 4.7 mph7.6 kmh 29.82 in1009.8 mb 0.00 in0.0 mm 0.00 in0.0 mm 0.00 in0.0 mm
03:14 AM 58.1°F14.5°C 55.2°F12.9°C 90% 2.7 mph WNW4.3 kmh WNW 4.7 mph7.6 kmh 29.82 in1009.8 mb 0.00 in0.0 mm 0.00 in0.0 mm 0.00 in0.0 mm
03:13 AM 58.1°F14.5°C 55.2°F12.9°C 90% 3.2 mph WNW5.1 kmh WNW 5.3 mph8.5 kmh 29.83 in1010.2 mb 0.00 in0.0 mm 0.00 in0.0 mm 0.00 in0.0 mm
03:12 AM 58.1°F14.5°C 55.2°F12.9°C 90% 2.7 mph NW4.3 kmh NW 5.3 mph8.5 kmh 29.83 in1010.2 mb 0.00 in0.0 mm 0.00 in0.0 mm 0.00 in0.0 mm
03:11 AM 58.1°F14.5°C 55.2°F12.9°C 90% 2.7 mph NW4.3 kmh NW 5.3 mph8.5 kmh 29.83 in1010.2 mb 0.00 in0.0 mm 0.00 in0.0 mm 0.00 in0.0 mm
03:10 AM 58.1°F14.5°C 55.2°F12.9°C 90% 2.2 mph WNW3.5 kmh WNW 5.3 mph8.5 kmh 29.83 in1010.2 mb 0.00 in0.0 mm 0.00 in0.0 mm 0.00 in0.0 mm
03:09 AM 58.1°F14.5°C 55.2°F12.9°C 90% 2.7 mph W4.3 kmh W 5.3 mph8.5 kmh 29.83 in1010.2 mb 0.00 in0.0 mm 0.00 in0.0 mm 0.00 in0.0 mm
03:08 AM 58.3°F14.6°C 55.4°F13.0°C 90% 2.7 mph WNW4.3 kmh WNW 5.3 mph8.5 kmh 29.83 in1010.2 mb 0.00 in0.0 mm 0.00 in0.0 mm 0.00 in0.0 mm
03:07 AM 58.3°F14.6°C 55.4°F13.0°C 90% 3.2 mph NW5.1 kmh NW 5.3 mph8.5 kmh 29.83 in1010.2 mb 0.00 in0.0 mm 0.00 in0.0 mm 0.00 in0.0 mm
03:06 AM 58.5°F14.7°C 55.5°F13.1°C 90% 4.7 mph WNW7.6 kmh WNW 5.3 mph8.5 kmh 29.83 in1010.2 mb 0.00 in0.0 mm 0.00 in0.0 mm 0.00 in0.0 mm
03:05 AM 58.5°F14.7°C 55.5°F13.1°C 90% 4.2 mph W6.8 kmh W 5.3 mph8.5 kmh 29.83 in1010.2 mb 0.00 in0.0 mm 0.00 in0.0 mm 0.00 in0.0 mm
03:04 AM 58.5°F14.7°C 55.5°F13.1°C 90% 3.7 mph NW6.0 kmh NW 5.3 mph8.5 kmh 29.83 in1010.2 mb 0.00 in0.0 mm 0.00 in0.0 mm 0.00 in0.0 mm
03:03 AM 58.5°F14.7°C 55.5°F13.1°C 90% 3.7 mph W6.0 kmh W 4.7 mph7.6 kmh 29.83 in1010.2 mb 0.00 in0.0 mm 0.00 in0.0 mm 0.00 in0.0 mm
03:02 AM 58.5°F14.7°C 55.5°F13.1°C 90% 3.2 mph NNW5.1 kmh NNW 4.7 mph7.6 kmh 29.84 in1010.5 mb 0.00 in0.0 mm 0.00 in0.0 mm 0.00 in0.0 mm
03:01 AM 58.5°F14.7°C 55.5°F13.1°C 90% 2.7 mph WNW4.3 kmh WNW 5.8 mph9.3 kmh 29.84 in1010.5 mb 0.00 in0.0 mm 0.00 in0.0 mm 0.00 in0.0 mm
03:00 AM 58.5°F14.7°C 55.5°F13.1°C 90% 2.2 mph W3.5 kmh W 5.8 mph9.3 kmh 29.84 in1010.5 mb 0.00 in0.0 mm 0.00 in0.0 mm 0.00 in0.0 mm
02:59 AM 58.6°F14.8°C 55.7°F13.2°C 90% 3.2 mph W5.1 kmh W 5.8 mph9.3 kmh 29.84 in1010.5 mb 0.00 in0.0 mm 0.00 in0.0 mm 0.00 in0.0 mm
02:58 AM 58.6°F14.8°C 55.7°F13.2°C 90% 3.2 mph W5.1 kmh W 5.8 mph9.3 kmh 29.84 in1010.5 mb 0.00 in0.0 mm 0.00 in0.0 mm 0.00 in0.0 mm
02:57 AM 58.6°F14.8°C 55.7°F13.2°C 90% 2.2 mph WNW3.5 kmh WNW 5.8 mph9.3 kmh 29.84 in1010.5 mb 0.00 in0.0 mm 0.00 in0.0 mm 0.00 in0.0 mm
02:56 AM 58.6°F14.8°C 55.7°F13.2°C 90% 1.1 mph W1.8 kmh W 5.8 mph9.3 kmh 29.84 in1010.5 mb 0.00 in0.0 mm 0.00 in0.0 mm 0.00 in0.0 mm
02:55 AM 58.6°F14.8°C 55.7°F13.2°C 90% 2.2 mph W3.5 kmh W 5.8 mph9.3 kmh 29.84 in1010.5 mb 0.00 in0.0 mm 0.00 in0.0 mm 0.00 in0.0 mm
02:54 AM 58.6°F14.8°C 55.7°F13.2°C 90% 3.2 mph W5.1 kmh W 5.8 mph9.3 kmh 29.84 in1010.5 mb 0.00 in0.0 mm 0.00 in0.0 mm 0.00 in0.0 mm
02:53 AM 58.6°F14.8°C 55.7°F13.2°C 90% 2.7 mph NW4.3 kmh NW 5.8 mph9.3 kmh 29.84 in1010.5 mb 0.00 in0.0 mm 0.00 in0.0 mm 0.00 in0.0 mm
02:52 AM 58.6°F14.8°C 55.7°F13.2°C 90% 2.7 mph NW4.3 kmh NW 5.8 mph9.3 kmh 29.84 in1010.5 mb 0.00 in0.0 mm 0.00 in0.0 mm 0.00 in0.0 mm
02:51 AM 58.6°F14.8°C 55.7°F13.2°C 90% 5.8 mph W9.3 kmh W 5.8 mph9.3 kmh 29.84 in1010.5 mb 0.00 in0.0 mm 0.00 in0.0 mm 0.00 in0.0 mm
02:50 AM 58.6°F14.8°C 56.0°F13.3°C 91% 4.7 mph W7.6 kmh W 4.7 mph7.6 kmh 29.84 in1010.5 mb 0.00 in0.0 mm 0.00 in0.0 mm 0.00 in0.0 mm
02:49 AM 58.6°F14.8°C 56.0°F13.3°C 91% 2.2 mph ENE3.5 kmh ENE 4.2 mph6.8 kmh 29.84 in1010.5 mb 0.00 in0.0 mm 0.00 in0.0 mm 0.00 in0.0 mm
02:48 AM 58.6°F14.8°C 56.0°F13.3°C 91% Calm Calm 4.2 mph6.8 kmh 29.84 in1010.5 mb 0.00 in0.0 mm 0.00 in0.0 mm 0.00 in0.0 mm
02:47 AM 58.6°F14.8°C 56.0°F13.3°C 91% 2.7 mph W4.3 kmh W 4.2 mph6.8 kmh 29.84 in1010.5 mb 0.00 in0.0 mm 0.00 in0.0 mm 0.00 in0.0 mm
02:46 AM 58.6°F14.8°C 56.0°F13.3°C 91% 2.2 mph W3.5 kmh W 4.2 mph6.8 kmh 29.84 in1010.5 mb 0.00 in0.0 mm 0.00 in0.0 mm 0.00 in0.0 mm
02:45 AM 58.6°F14.8°C 56.0°F13.3°C 91% 3.2 mph WNW5.1 kmh WNW 4.2 mph6.8 kmh 29.84 in1010.5 mb 0.00 in0.0 mm 0.00 in0.0 mm 0.00 in0.0 mm
02:44 AM 58.6°F14.8°C 56.0°F13.3°C 91% 2.2 mph WNW3.5 kmh WNW 4.2 mph6.8 kmh 29.84 in1010.5 mb 0.00 in0.0 mm 0.00 in0.0 mm 0.00 in0.0 mm
02:43 AM 58.6°F14.8°C 56.0°F13.3°C 91% 2.2 mph W3.5 kmh W 4.2 mph6.8 kmh 29.84 in1010.5 mb 0.00 in0.0 mm 0.00 in0.0 mm 0.00 in0.0 mm
02:42 AM 58.6°F14.8°C 56.0°F13.3°C 91% 3.2 mph W5.1 kmh W 4.2 mph6.8 kmh 29.84 in1010.5 mb 0.00 in0.0 mm 0.00 in0.0 mm 0.00 in0.0 mm
02:41 AM 58.6°F14.8°C 56.0°F13.3°C 91% 2.7 mph WNW4.3 kmh WNW 4.2 mph6.8 kmh 29.84 in1010.5 mb 0.00 in0.0 mm 0.00 in0.0 mm 0.00 in0.0 mm
02:40 AM 58.6°F14.8°C 56.0°F13.3°C 91% 4.2 mph WNW6.8 kmh WNW 4.2 mph6.8 kmh 29.84 in1010.5 mb 0.00 in0.0 mm 0.00 in0.0 mm 0.00 in0.0 mm
02:39 AM 58.6°F14.8°C 56.0°F13.3°C 91% 2.7 mph W4.3 kmh W 2.7 mph4.3 kmh 29.84 in1010.5 mb 0.00 in0.0 mm 0.00 in0.0 mm 0.00 in0.0 mm
02:38 AM 58.6°F14.8°C 56.0°F13.3°C 91% 1.7 mph NW2.7 kmh NW 2.7 mph4.3 kmh 29.84 in1010.5 mb 0.00 in0.0 mm 0.00 in0.0 mm 0.00 in0.0 mm
02:37 AM 58.6°F14.8°C 56.0°F13.3°C 91% 1.7 mph W2.7 kmh W 2.7 mph4.3 kmh 29.84 in1010.5 mb 0.00 in0.0 mm 0.00 in0.0 mm 0.00 in0.0 mm
02:36 AM 58.6°F14.8°C 56.0°F13.3°C 91% 1.7 mph W2.7 kmh W 2.7 mph4.3 kmh 29.84 in1010.5 mb 0.00 in0.0 mm 0.00 in0.0 mm 0.00 in0.0 mm
02:35 AM 58.6°F14.8°C 56.0°F13.3°C 91% 2.7 mph WNW4.3 kmh WNW 2.7 mph4.3 kmh 29.84 in1010.5 mb 0.00 in0.0 mm 0.00 in0.0 mm 0.00 in0.0 mm
02:34 AM 58.6°F14.8°C 56.0°F13.3°C 91% 2.2 mph W3.5 kmh W 2.7 mph4.3 kmh 29.84 in1010.5 mb 0.00 in0.0 mm 0.00 in0.0 mm 0.00 in0.0 mm
02:33 AM 58.6°F14.8°C 56.0°F13.3°C 91% 2.2 mph W3.5 kmh W 2.2 mph3.5 kmh 29.84 in1010.5 mb 0.00 in0.0 mm 0.00 in0.0 mm 0.00 in0.0 mm
02:32 AM 58.6°F14.8°C 56.3°F13.5°C 92% Calm Calm 2.2 mph3.5 kmh 29.84 in1010.5 mb 0.00 in0.0 mm 0.00 in0.0 mm 0.00 in0.0 mm
02:31 AM 58.6°F14.8°C 56.3°F13.5°C 92% Calm Calm 2.7 mph4.3 kmh 29.84 in1010.5 mb 0.00 in0.0 mm 0.00 in0.0 mm 0.00 in0.0 mm
02:30 AM 58.6°F14.8°C 56.3°F13.5°C 92% Calm Calm 2.7 mph4.3 kmh 29.84 in1010.5 mb 0.00 in0.0 mm 0.00 in0.0 mm 0.00 in0.0 mm
02:29 AM 58.6°F14.8°C 56.3°F13.5°C 92% Calm Calm 2.7 mph4.3 kmh 29.84 in1010.5 mb 0.00 in0.0 mm 0.00 in0.0 mm 0.00 in0.0 mm
02:28 AM 58.6°F14.8°C 56.3°F13.5°C 92% Calm Calm 2.7 mph4.3 kmh 29.84 in1010.5 mb 0.00 in0.0 mm 0.00 in0.0 mm 0.00 in0.0 mm
02:27 AM 58.6°F14.8°C 56.3°F13.5°C 92% Calm Calm 2.7 mph4.3 kmh 29.84 in1010.5 mb 0.00 in0.0 mm 0.00 in0.0 mm 0.00 in0.0 mm
02:26 AM 58.6°F14.8°C 56.3°F13.5°C 92% Calm Calm 2.7 mph4.3 kmh 29.84 in1010.5 mb 0.00 in0.0 mm 0.00 in0.0 mm 0.00 in0.0 mm
02:25 AM 58.6°F14.8°C 56.3°F13.5°C 92% Calm Calm 2.7 mph4.3 kmh 29.84 in1010.5 mb 0.00 in0.0 mm 0.00 in0.0 mm 0.00 in0.0 mm
02:24 AM 58.6°F14.8°C 56.3°F13.5°C 92% Calm Calm 2.7 mph4.3 kmh 29.84 in1010.5 mb 0.00 in0.0 mm 0.00 in0.0 mm 0.00 in0.0 mm
02:23 AM 58.6°F14.8°C 56.3°F13.5°C 92% 1.7 mph WSW2.7 kmh WSW 2.7 mph4.3 kmh 29.84 in1010.5 mb 0.00 in0.0 mm 0.00 in0.0 mm 0.00 in0.0 mm
02:22 AM 58.6°F14.8°C 56.3°F13.5°C 92% 2.2 mph WSW3.5 kmh WSW 2.7 mph4.3 kmh 29.84 in1010.5 mb 0.00 in0.0 mm 0.00 in0.0 mm 0.00 in0.0 mm
02:21 AM 58.8°F14.9°C 56.5°F13.6°C 92% 2.2 mph SW3.5 kmh SW 2.7 mph4.3 kmh 29.84 in1010.5 mb 0.00 in0.0 mm 0.00 in0.0 mm 0.00 in0.0 mm
02:20 AM 58.8°F14.9°C 56.5°F13.6°C 92% 1.7 mph W2.7 kmh W 2.7 mph4.3 kmh 29.84 in1010.5 mb 0.00 in0.0 mm 0.00 in0.0 mm 0.00 in0.0 mm
02:19 AM 58.8°F14.9°C 56.5°F13.6°C 92% 1.1 mph W1.8 kmh W 2.7 mph4.3 kmh 29.84 in1010.5 mb 0.00 in0.0 mm 0.00 in0.0 mm 0.00 in0.0 mm
02:18 AM 58.6°F14.8°C 56.3°F13.5°C 92% 2.2 mph W3.5 kmh W 2.7 mph4.3 kmh 29.84 in1010.5 mb 0.00 in0.0 mm 0.00 in0.0 mm 0.00 in0.0 mm
02:17 AM 58.5°F14.7°C 56.1°F13.4°C 92% 1.7 mph W2.7 kmh W 2.7 mph4.3 kmh 29.84 in1010.5 mb 0.00 in0.0 mm 0.00 in0.0 mm 0.00 in0.0 mm
02:16 AM 58.5°F14.7°C 56.4°F13.6°C 93% 2.2 mph W3.5 kmh W 2.7 mph4.3 kmh 29.84 in1010.5 mb 0.00 in0.0 mm 0.00 in0.0 mm 0.00 in0.0 mm
02:15 AM 58.5°F14.7°C 56.4°F13.6°C 93% 1.7 mph W2.7 kmh W 2.7 mph4.3 kmh 29.84 in1010.5 mb 0.00 in0.0 mm 0.00 in0.0 mm 0.00 in0.0 mm
02:14 AM 58.5°F14.7°C 56.4°F13.6°C 93% 2.7 mph WNW4.3 kmh WNW 2.7 mph4.3 kmh 29.84 in1010.5 mb 0.00 in0.0 mm 0.00 in0.0 mm 0.00 in0.0 mm
02:13 AM 58.5°F14.7°C 56.4°F13.6°C 93% 2.7 mph WNW4.3 kmh WNW 2.7 mph4.3 kmh 29.84 in1010.5 mb 0.00 in0.0 mm 0.00 in0.0 mm 0.00 in0.0 mm
02:12 AM 58.5°F14.7°C 56.4°F13.6°C 93% 2.7 mph WNW4.3 kmh WNW 2.7 mph4.3 kmh 29.84 in1010.5 mb 0.00 in0.0 mm 0.00 in0.0 mm 0.00 in0.0 mm
02:11 AM 58.5°F14.7°C 56.4°F13.6°C 93% 2.2 mph NW3.5 kmh NW 2.7 mph4.3 kmh 29.84 in1010.5 mb 0.00 in0.0 mm 0.00 in0.0 mm 0.00 in0.0 mm
02:10 AM 58.5°F14.7°C 56.4°F13.6°C 93% Calm Calm 2.7 mph4.3 kmh 29.84 in1010.5 mb 0.00 in0.0 mm 0.00 in0.0 mm 0.00 in0.0 mm
02:09 AM 58.3°F14.6°C 56.6°F13.7°C 94% Calm Calm 2.7 mph4.3 kmh 29.84 in1010.5 mb 0.00 in0.0 mm 0.00 in0.0 mm 0.00 in0.0 mm
02:08 AM 58.3°F14.6°C 56.6°F13.7°C 94% 1.7 mph W2.7 kmh W 2.7 mph4.3 kmh 29.84 in1010.5 mb 0.00 in0.0 mm 0.00 in0.0 mm 0.00 in0.0 mm
02:07 AM 58.1°F14.5°C 56.4°F13.6°C 94% 2.2 mph W3.5 kmh W 2.7 mph4.3 kmh 29.84 in1010.5 mb 0.00 in0.0 mm 0.00 in0.0 mm 0.00 in0.0 mm
02:06 AM 58.1°F14.5°C 56.4°F13.6°C 94% 2.2 mph WSW3.5 kmh WSW 2.7 mph4.3 kmh 29.84 in1010.5 mb 0.00 in0.0 mm 0.00 in0.0 mm 0.00 in0.0 mm
02:05 AM 58.1°F14.5°C 56.4°F13.6°C 94% 2.2 mph W3.5 kmh W 2.7 mph4.3 kmh 29.84 in1010.5 mb 0.00 in0.0 mm 0.00 in0.0 mm 0.00 in0.0 mm
02:04 AM 57.9°F14.4°C 56.2°F13.4°C 94% 1.7 mph W2.7 kmh W 2.7 mph4.3 kmh 29.84 in1010.5 mb 0.00 in0.0 mm 0.00 in0.0 mm 0.00 in0.0 mm
02:03 AM 57.7°F14.3°C 56.0°F13.3°C 94% 1.1 mph W1.8 kmh W 2.7 mph4.3 kmh 29.84 in1010.5 mb 0.00 in0.0 mm 0.00 in0.0 mm 0.00 in0.0 mm
02:02 AM 57.6°F14.2°C 55.8°F13.2°C 94% 2.2 mph WNW3.5 kmh WNW 2.7 mph4.3 kmh 29.84 in1010.5 mb 0.00 in0.0 mm 0.00 in0.0 mm 0.00 in0.0 mm
02:01 AM 57.6°F14.2°C 55.8°F13.2°C 94% 2.7 mph W4.3 kmh W 2.7 mph4.3 kmh 29.84 in1010.5 mb 0.00 in0.0 mm 0.00 in0.0 mm 0.00 in0.0 mm
02:00 AM 57.6°F14.2°C 55.8°F13.2°C 94% 2.2 mph NW3.5 kmh NW 2.2 mph3.5 kmh 29.84 in1010.5 mb 0.00 in0.0 mm 0.00 in0.0 mm 0.00 in0.0 mm
01:59 AM 57.4°F14.1°C 55.7°F13.2°C 94% Calm Calm -- 29.84 in1010.5 mb 0.00 in0.0 mm 0.00 in0.0 mm 0.00 in0.0 mm
01:58 AM 57.4°F14.1°C 55.7°F13.2°C 94% Calm Calm -- 29.84 in1010.5 mb 0.00 in0.0 mm 0.00 in0.0 mm 0.00 in0.0 mm
01:57 AM 57.4°F14.1°C 55.7°F13.2°C 94% Calm Calm -- 29.84 in1010.5 mb 0.00 in0.0 mm 0.00 in0.0 mm 0.00 in0.0 mm
01:56 AM 57.4°F14.1°C 55.4°F13.0°C 93% Calm Calm -- 29.84 in1010.5 mb 0.00 in0.0 mm 0.00 in0.0 mm 0.00 in0.0 mm
01:55 AM 57.4°F14.1°C 55.4°F13.0°C 93% Calm Calm -- 29.84 in1010.5 mb 0.00 in0.0 mm 0.00 in0.0 mm 0.00 in0.0 mm
01:54 AM 57.4°F14.1°C 55.4°F13.0°C 93% Calm Calm -- 29.84 in1010.5 mb 0.00 in0.0 mm 0.00 in0.0 mm 0.00 in0.0 mm
01:53 AM 57.6°F14.2°C 55.5°F13.1°C 93% Calm Calm -- 29.84 in1010.5 mb 0.00 in0.0 mm 0.00 in0.0 mm 0.00 in0.0 mm
01:52 AM 57.7°F14.3°C 55.7°F13.2°C 93% Calm Calm -- 29.84 in1010.5 mb 0.00 in0.0 mm 0.00 in0.0 mm 0.00 in0.0 mm
01:51 AM 57.7°F14.3°C 56.0°F13.3°C 94% Calm Calm -- 29.84 in1010.5 mb 0.00 in0.0 mm 0.00 in0.0 mm 0.00 in0.0 mm
01:50 AM 57.6°F14.2°C 55.5°F13.1°C 93% Calm Calm -- 29.84 in1010.5 mb 0.00 in0.0 mm 0.00 in0.0 mm 0.00 in0.0 mm
01:49 AM 57.6°F14.2°C 55.3°F12.9°C 92% Calm Calm -- 29.84 in1010.5 mb 0.00 in0.0 mm 0.00 in0.0 mm 0.00 in0.0 mm
01:48 AM 57.7°F14.3°C 55.4°F13.0°C 92% Calm Calm -- 29.84 in1010.5 mb 0.00 in0.0 mm 0.00 in0.0 mm 0.00 in0.0 mm
01:47 AM 57.7°F14.3°C 55.4°F13.0°C 92% Calm Calm -- 29.84 in1010.5 mb 0.00 in0.0 mm 0.00 in0.0 mm 0.00 in0.0 mm
01:46 AM 57.7°F14.3°C 55.4°F13.0°C 92% Calm Calm -- 29.84 in1010.5 mb 0.00 in0.0 mm 0.00 in0.0 mm 0.00 in0.0 mm
01:45 AM 57.9°F14.4°C 55.6°F13.1°C 92% Calm Calm -- 29.84 in1010.5 mb 0.00 in0.0 mm 0.00 in0.0 mm 0.00 in0.0 mm
01:44 AM 57.9°F14.4°C 55.6°F13.1°C 92% Calm Calm -- 29.84 in1010.5 mb 0.00 in0.0 mm 0.00 in0.0 mm 0.00 in0.0 mm
01:43 AM 58.1°F14.5°C 56.1°F13.4°C 93% Calm Calm -- 29.84 in1010.5 mb 0.00 in0.0 mm 0.00 in0.0 mm 0.00 in0.0 mm
01:42 AM 58.1°F14.5°C 56.1°F13.4°C 93% Calm Calm -- 29.84 in1010.5 mb 0.00 in0.0 mm 0.00 in0.0 mm 0.00 in0.0 mm
01:41 AM 58.1°F14.5°C 56.1°F13.4°C 93% Calm Calm -- 29.84 in1010.5 mb 0.00 in0.0 mm 0.00 in0.0 mm 0.00 in0.0 mm
01:40 AM 58.1°F14.5°C 56.1°F13.4°C 93% Calm Calm -- 29.84 in1010.5 mb 0.00 in0.0 mm 0.00 in0.0 mm 0.00 in0.0 mm
01:39 AM 58.1°F14.5°C 55.8°F13.2°C 92% Calm Calm -- 29.84 in1010.5 mb 0.00 in0.0 mm 0.00 in0.0 mm 0.00 in0.0 mm
01:38 AM 58.3°F14.6°C 56.3°F13.5°C 93% Calm Calm -- 29.84 in1010.5 mb 0.00 in0.0 mm 0.00 in0.0 mm 0.00 in0.0 mm
01:37 AM 58.3°F14.6°C 56.3°F13.5°C 93% Calm Calm -- 29.84 in1010.5 mb 0.00 in0.0 mm 0.00 in0.0 mm 0.00 in0.0 mm
01:36 AM 58.3°F14.6°C 56.3°F13.5°C 93% Calm Calm -- 29.84 in1010.5 mb 0.00 in0.0 mm 0.00 in0.0 mm 0.00 in0.0 mm
01:35 AM 58.3°F14.6°C 56.3°F13.5°C 93% Calm Calm -- 29.84 in1010.5 mb 0.00 in0.0 mm 0.00 in0.0 mm 0.00 in0.0 mm
01:34 AM 58.3°F14.6°C 56.0°F13.3°C 92% Calm Calm -- 29.84 in1010.5 mb 0.00 in0.0 mm 0.00 in0.0 mm 0.00 in0.0 mm
01:33 AM 58.3°F14.6°C 55.7°F13.2°C 91% Calm Calm -- 29.84 in1010.5 mb 0.00 in0.0 mm 0.00 in0.0 mm 0.00 in0.0 mm
01:32 AM 58.3°F14.6°C 55.7°F13.2°C 91% Calm Calm -- 29.84 in1010.5 mb 0.00 in0.0 mm 0.00 in0.0 mm 0.00 in0.0 mm
01:31 AM 58.3°F14.6°C 55.7°F13.2°C 91% Calm Calm -- 29.84 in1010.5 mb 0.00 in0.0 mm 0.00 in0.0 mm 0.00 in0.0 mm
01:30 AM 58.3°F14.6°C 55.7°F13.2°C 91% Calm Calm -- 29.84 in1010.5 mb 0.00 in0.0 mm 0.00 in0.0 mm 0.00 in0.0 mm
01:29 AM 58.3°F14.6°C 55.4°F13.0°C 90% Calm Calm -- 29.84 in1010.5 mb 0.00 in0.0 mm 0.00 in0.0 mm 0.00 in0.0 mm
01:28 AM 58.3°F14.6°C 55.4°F13.0°C 90% Calm Calm -- 29.84 in1010.5 mb 0.00 in0.0 mm 0.00 in0.0 mm 0.00 in0.0 mm
01:27 AM 58.5°F14.7°C 55.5°F13.1°C 90% Calm Calm -- 29.84 in1010.5 mb 0.00 in0.0 mm 0.00 in0.0 mm 0.00 in0.0 mm
01:26 AM 58.5°F14.7°C 55.5°F13.1°C 90% Calm Calm -- 29.86 in1011.2 mb 0.00 in0.0 mm 0.00 in0.0 mm 0.00 in0.0 mm
01:25 AM 58.5°F14.7°C 55.8°F13.2°C 91% Calm Calm -- 29.86 in1011.2 mb 0.00 in0.0 mm 0.00 in0.0 mm 0.00 in0.0 mm
01:24 AM 58.5°F14.7°C 55.8°F13.2°C 91% Calm Calm -- 29.86 in1011.2 mb 0.00 in0.0 mm 0.00 in0.0 mm 0.00 in0.0 mm
01:23 AM 58.5°F14.7°C 55.8°F13.2°C 91% Calm Calm -- 29.86 in1011.2 mb 0.00 in0.0 mm 0.00 in0.0 mm 0.00 in0.0 mm
01:22 AM 58.6°F14.8°C 56.0°F13.3°C 91% Calm Calm -- 29.86 in1011.2 mb 0.00 in0.0 mm 0.00 in0.0 mm 0.00 in0.0 mm
01:21 AM 58.8°F14.9°C 56.2°F13.4°C 91% Calm Calm -- 29.86 in1011.2 mb 0.00 in0.0 mm 0.00 in0.0 mm 0.00 in0.0 mm
01:20 AM 58.8°F14.9°C 56.2°F13.4°C 91% Calm Calm -- 29.86 in1011.2 mb 0.00 in0.0 mm 0.00 in0.0 mm 0.00 in0.0 mm
01:19 AM 58.8°F14.9°C 56.2°F13.4°C 91% Calm Calm -- 29.86 in1011.2 mb 0.00 in0.0 mm 0.00 in0.0 mm 0.00 in0.0 mm
01:18 AM 58.8°F14.9°C 56.2°F13.4°C 91% Calm Calm -- 29.86 in1011.2 mb 0.00 in0.0 mm 0.00 in0.0 mm 0.00 in0.0 mm
01:17 AM 58.8°F14.9°C 56.2°F13.4°C 91% Calm Calm -- 29.86 in1011.2 mb 0.00 in0.0 mm 0.00 in0.0 mm 0.00 in0.0 mm
01:16 AM 58.8°F14.9°C 56.2°F13.4°C 91% Calm Calm -- 29.86 in1011.2 mb 0.00 in0.0 mm 0.00 in0.0 mm 0.00 in0.0 mm
01:15 AM 58.8°F14.9°C 56.2°F13.4°C 91% Calm Calm -- 29.86 in1011.2 mb 0.00 in0.0 mm 0.00 in0.0 mm 0.00 in0.0 mm
01:14 AM 59.0°F15.0°C 56.4°F13.6°C 91% Calm Calm -- 29.86 in1011.2 mb 0.00 in0.0 mm 0.00 in0.0 mm 0.00 in0.0 mm
01:13 AM 59.0°F15.0°C 56.4°F13.6°C 91% Calm Calm -- 29.86 in1011.2 mb 0.00 in0.0 mm 0.00 in0.0 mm 0.00 in0.0 mm
01:12 AM 59.0°F15.0°C 56.4°F13.6°C 91% Calm Calm -- 29.86 in1011.2 mb 0.00 in0.0 mm 0.00 in0.0 mm 0.00 in0.0 mm
01:11 AM 59.0°F15.0°C 56.1°F13.4°C 90% Calm Calm -- 29.86 in1011.2 mb 0.00 in0.0 mm 0.00 in0.0 mm 0.00 in0.0 mm
01:10 AM 59.0°F15.0°C 56.1°F13.4°C 90% Calm Calm -- 29.86 in1011.2 mb 0.00 in0.0 mm 0.00 in0.0 mm 0.00 in0.0 mm
01:09 AM 59.0°F15.0°C 56.1°F13.4°C 90% Calm Calm -- 29.86 in1011.2 mb 0.00 in0.0 mm 0.00 in0.0 mm 0.00 in0.0 mm
01:08 AM 59.0°F15.0°C 56.1°F13.4°C 90% Calm Calm -- 29.86 in1011.2 mb 0.00 in0.0 mm 0.00 in0.0 mm 0.00 in0.0 mm
01:07 AM 59.0°F15.0°C 56.1°F13.4°C 90% Calm Calm -- 29.86 in1011.2 mb 0.00 in0.0 mm 0.00 in0.0 mm 0.00 in0.0 mm
01:06 AM 59.0°F15.0°C 56.1°F13.4°C 90% Calm Calm -- 29.86 in1011.2 mb 0.00 in0.0 mm 0.00 in0.0 mm 0.00 in0.0 mm
01:05 AM 59.0°F15.0°C 56.1°F13.4°C 90% Calm Calm -- 29.86 in1011.2 mb 0.00 in0.0 mm 0.00 in0.0 mm 0.00 in0.0 mm
01:04 AM 59.2°F15.1°C 56.2°F13.4°C 90% Calm Calm -- 29.86 in1011.2 mb 0.00 in0.0 mm 0.00 in0.0 mm 0.00 in0.0 mm
01:03 AM 59.2°F15.1°C 56.2°F13.4°C 90% Calm Calm -- 29.86 in1011.2 mb 0.00 in0.0 mm 0.00 in0.0 mm 0.00 in0.0 mm
01:02 AM 59.2°F15.1°C 56.2°F13.4°C 90% Calm Calm -- 29.86 in1011.2 mb 0.00 in0.0 mm 0.00 in0.0 mm 0.00 in0.0 mm
01:01 AM 59.2°F15.1°C 56.2°F13.4°C 90% Calm Calm -- 29.86 in1011.2 mb 0.00 in0.0 mm 0.00 in0.0 mm 0.00 in0.0 mm
01:00 AM 59.4°F15.2°C 56.4°F13.6°C 90% Calm Calm -- 29.86 in1011.2 mb 0.00 in0.0 mm 0.00 in0.0 mm 0.00 in0.0 mm
12:59 AM 59.4°F15.2°C 56.4°F13.6°C 90% Calm Calm -- 29.86 in1011.2 mb 0.00 in0.0 mm 0.00 in0.0 mm 0.00 in0.0 mm
12:58 AM 59.4°F15.2°C 56.4°F13.6°C 90% Calm Calm -- 29.86 in1011.2 mb 0.00 in0.0 mm 0.00 in0.0 mm 0.00 in0.0 mm
12:57 AM 59.5°F15.3°C 56.6°F13.7°C 90% Calm Calm -- 29.86 in1011.2 mb 0.00 in0.0 mm 0.00 in0.0 mm 0.00 in0.0 mm
12:56 AM 59.5°F15.3°C 56.6°F13.7°C 90% Calm Calm -- 29.86 in1011.2 mb 0.00 in0.0 mm 0.00 in0.0 mm 0.00 in0.0 mm
12:55 AM 59.5°F15.3°C 56.3°F13.5°C 89% Calm Calm -- 29.86 in1011.2 mb 0.00 in0.0 mm 0.00 in0.0 mm 0.00 in0.0 mm
12:54 AM 59.5°F15.3°C 56.3°F13.5°C 89% Calm Calm -- 29.86 in1011.2 mb 0.00 in0.0 mm 0.00 in0.0 mm 0.00 in0.0 mm
12:53 AM 59.5°F15.3°C 56.0°F13.3°C 88% Calm Calm -- 29.86 in1011.2 mb 0.00 in0.0 mm 0.00 in0.0 mm 0.00 in0.0 mm
12:52 AM 59.5°F15.3°C 56.0°F13.3°C 88% Calm Calm -- 29.86 in1011.2 mb 0.00 in0.0 mm 0.00 in0.0 mm 0.00 in0.0 mm
12:51 AM 59.5°F15.3°C 56.0°F13.3°C 88% Calm Calm -- 29.86 in1011.2 mb 0.00 in0.0 mm 0.00 in0.0 mm 0.00 in0.0 mm
12:50 AM 59.5°F15.3°C 56.0°F13.3°C 88% Calm Calm -- 29.87 in1011.5 mb 0.00 in0.0 mm 0.00 in0.0 mm 0.00 in0.0 mm
12:49 AM 59.7°F15.4°C 56.2°F13.4°C 88% Calm Calm -- 29.87 in1011.5 mb 0.00 in0.0 mm 0.00 in0.0 mm 0.00 in0.0 mm
12:48 AM 59.7°F15.4°C 56.2°F13.4°C 88% Calm Calm -- 29.87 in1011.5 mb 0.00 in0.0 mm 0.00 in0.0 mm 0.00 in0.0 mm
12:47 AM 59.7°F15.4°C 56.2°F13.4°C 88% Calm Calm -- 29.87 in1011.5 mb 0.00 in0.0 mm 0.00 in0.0 mm 0.00 in0.0 mm
12:46 AM 59.7°F15.4°C 56.2°F13.4°C 88% Calm Calm -- 29.87 in1011.5 mb 0.00 in0.0 mm 0.00 in0.0 mm 0.00 in0.0 mm
12:45 AM 59.9°F15.5°C 56.3°F13.5°C 88% Calm Calm -- 29.87 in1011.5 mb 0.00 in0.0 mm 0.00 in0.0 mm 0.00 in0.0 mm
12:44 AM 59.9°F15.5°C 56.3°F13.5°C 88% Calm Calm -- 29.87 in1011.5 mb 0.00 in0.0 mm 0.00 in0.0 mm 0.00 in0.0 mm
12:43 AM 59.9°F15.5°C 56.3°F13.5°C 88% Calm Calm -- 29.87 in1011.5 mb 0.00 in0.0 mm 0.00 in0.0 mm 0.00 in0.0 mm
12:42 AM 60.1°F15.6°C 56.5°F13.6°C 88% Calm Calm -- 29.87 in1011.5 mb 0.00 in0.0 mm 0.00 in0.0 mm 0.00 in0.0 mm
12:41 AM 60.1°F15.6°C 56.5°F13.6°C 88% Calm Calm -- 29.87 in1011.5 mb 0.00 in0.0 mm 0.00 in0.0 mm 0.00 in0.0 mm
12:40 AM 60.1°F15.6°C 56.5°F13.6°C 88% Calm Calm -- 29.87 in1011.5 mb 0.00 in0.0 mm 0.00 in0.0 mm 0.00 in0.0 mm
12:39 AM 60.3°F15.7°C 56.7°F13.7°C 88% Calm Calm -- 29.87 in1011.5 mb 0.00 in0.0 mm 0.00 in0.0 mm 0.00 in0.0 mm
12:38 AM 60.3°F15.7°C 56.7°F13.7°C 88% Calm Calm -- 29.88 in1011.9 mb 0.00 in0.0 mm 0.00 in0.0 mm 0.00 in0.0 mm
12:37 AM 60.4°F15.8°C 56.9°F13.8°C 88% Calm Calm -- 29.88 in1011.9 mb 0.00 in0.0 mm 0.00 in0.0 mm 0.00 in0.0 mm
12:36 AM 60.4°F15.8°C 56.9°F13.8°C 88% Calm Calm -- 29.88 in1011.9 mb 0.00 in0.0 mm 0.00 in0.0 mm 0.00 in0.0 mm
12:35 AM 60.4°F15.8°C 56.5°F13.6°C 87% Calm Calm -- 29.88 in1011.9 mb 0.00 in0.0 mm 0.00 in0.0 mm 0.00 in0.0 mm
12:34 AM 60.4°F15.8°C 56.9°F13.8°C 88% Calm Calm 1.1 mph1.8 kmh 29.88 in1011.9 mb 0.00 in0.0 mm 0.00 in0.0 mm 0.00 in0.0 mm
12:33 AM 60.4°F15.8°C 56.5°F13.6°C 87% Calm Calm 1.1 mph1.8 kmh 29.88 in1011.9 mb 0.00 in0.0 mm 0.00 in0.0 mm 0.00 in0.0 mm
12:32 AM 60.4°F15.8°C 56.5°F13.6°C 87% Calm Calm 1.1 mph1.8 kmh 29.88 in1011.9 mb 0.00 in0.0 mm 0.00 in0.0 mm 0.00 in0.0 mm
12:31 AM 60.4°F15.8°C 56.5°F13.6°C 87% Calm Calm 1.1 mph1.8 kmh 29.88 in1011.9 mb 0.00 in0.0 mm 0.00 in0.0 mm 0.00 in0.0 mm
12:30 AM 60.6°F15.9°C 56.7°F13.7°C 87% Calm Calm 1.1 mph1.8 kmh 29.88 in1011.9 mb 0.00 in0.0 mm 0.00 in0.0 mm 0.00 in0.0 mm
12:29 AM 60.6°F15.9°C 56.7°F13.7°C 87% Calm Calm 1.1 mph1.8 kmh 29.88 in1011.9 mb 0.00 in0.0 mm 0.00 in0.0 mm 0.00 in0.0 mm
12:28 AM 60.6°F15.9°C 56.7°F13.7°C 87% Calm Calm 1.1 mph1.8 kmh 29.88 in1011.9 mb 0.00 in0.0 mm 0.00 in0.0 mm 0.00 in0.0 mm
12:27 AM 60.8°F16.0°C 56.9°F13.8°C 87% Calm Calm 1.1 mph1.8 kmh 29.88 in1011.9 mb 0.00 in0.0 mm 0.00 in0.0 mm 0.00 in0.0 mm
12:26 AM 60.8°F16.0°C 56.9°F13.8°C 87% Calm Calm 1.1 mph1.8 kmh 29.88 in1011.9 mb 0.00 in0.0 mm 0.00 in0.0 mm 0.00 in0.0 mm
12:25 AM 60.8°F16.0°C 56.9°F13.8°C 87% Calm Calm 1.1 mph1.8 kmh 29.88 in1011.9 mb 0.00 in0.0 mm 0.00 in0.0 mm 0.00 in0.0 mm
12:24 AM 61.0°F16.1°C 57.1°F13.9°C 87% Calm Calm -- 29.88 in1011.9 mb 0.00 in0.0 mm 0.00 in0.0 mm 0.00 in0.0 mm
12:23 AM 61.0°F16.1°C 57.1°F13.9°C 87% Calm Calm -- 29.88 in1011.9 mb 0.00 in0.0 mm 0.00 in0.0 mm 0.00 in0.0 mm
12:22 AM 61.2°F16.2°C 57.3°F14.1°C 87% Calm Calm -- 29.88 in1011.9 mb 0.00 in0.0 mm 0.00 in0.0 mm 0.00 in0.0 mm
12:21 AM 61.2°F16.2°C 56.9°F13.8°C 86% Calm Calm -- 29.88 in1011.9 mb 0.00 in0.0 mm 0.00 in0.0 mm 0.00 in0.0 mm
12:20 AM 61.2°F16.2°C 56.9°F13.8°C 86% Calm Calm -- 29.88 in1011.9 mb 0.00 in0.0 mm 0.00 in0.0 mm 0.00 in0.0 mm
12:19 AM 61.2°F16.2°C 56.9°F13.8°C 86% Calm Calm -- 29.88 in1011.9 mb 0.00 in0.0 mm 0.00 in0.0 mm 0.00 in0.0 mm
12:18 AM 61.3°F16.3°C 57.1°F13.9°C 86% Calm Calm -- 29.88 in1011.9 mb 0.00 in0.0 mm 0.00 in0.0 mm 0.00 in0.0 mm
12:17 AM 61.3°F16.3°C 57.1°F13.9°C 86% Calm Calm -- 29.88 in1011.9 mb 0.00 in0.0 mm 0.00 in0.0 mm 0.00 in0.0 mm
12:16 AM 61.3°F16.3°C 57.1°F13.9°C 86% Calm Calm -- 29.88 in1011.9 mb 0.00 in0.0 mm 0.00 in0.0 mm 0.00 in0.0 mm
12:15 AM 61.3°F16.3°C 57.1°F13.9°C 86% Calm Calm -- 29.88 in1011.9 mb 0.00 in0.0 mm 0.00 in0.0 mm 0.00 in0.0 mm
12:14 AM 61.3°F16.3°C 56.8°F13.8°C 85% Calm Calm -- 29.88 in1011.9 mb 0.00 in0.0 mm 0.00 in0.0 mm 0.00 in0.0 mm
12:13 AM 61.3°F16.3°C 56.8°F13.8°C 85% Calm Calm -- 29.88 in1011.9 mb 0.00 in0.0 mm 0.00 in0.0 mm 0.00 in0.0 mm
12:12 AM 61.3°F16.3°C 56.8°F13.8°C 85% Calm Calm -- 29.88 in1011.9 mb 0.00 in0.0 mm 0.00 in0.0 mm 0.00 in0.0 mm
12:11 AM 61.5°F16.4°C 57.0°F13.9°C 85% Calm Calm -- 29.88 in1011.9 mb 0.00 in0.0 mm 0.00 in0.0 mm 0.00 in0.0 mm
12:10 AM 61.5°F16.4°C 57.0°F13.9°C 85% Calm Calm -- 29.88 in1011.9 mb 0.00 in0.0 mm 0.00 in0.0 mm 0.00 in0.0 mm
12:09 AM 61.5°F16.4°C 57.0°F13.9°C 85% Calm Calm -- 29.88 in1011.9 mb 0.00 in0.0 mm 0.00 in0.0 mm 0.00 in0.0 mm
12:08 AM 61.5°F16.4°C 57.0°F13.9°C 85% Calm Calm -- 29.88 in1011.9 mb 0.00 in0.0 mm 0.00 in0.0 mm 0.00 in0.0 mm
12:07 AM 61.7°F16.5°C 56.8°F13.8°C 84% Calm Calm -- 29.88 in1011.9 mb 0.00 in0.0 mm 0.00 in0.0 mm 0.00 in0.0 mm
12:06 AM 61.7°F16.5°C 56.8°F13.8°C 84% Calm Calm -- 29.88 in1011.9 mb 0.00 in0.0 mm 0.00 in0.0 mm 0.00 in0.0 mm
12:05 AM 61.9°F16.6°C 57.0°F13.9°C 84% Calm Calm -- 29.88 in1011.9 mb 0.00 in0.0 mm 0.00 in0.0 mm 0.00 in0.0 mm
12:04 AM 61.9°F16.6°C 57.0°F13.9°C 84% Calm Calm -- 29.88 in1011.9 mb 0.00 in0.0 mm 0.00 in0.0 mm 0.00 in0.0 mm
12:03 AM 61.9°F16.6°C 57.0°F13.9°C 84% Calm Calm -- 29.88 in1011.9 mb 0.00 in0.0 mm 0.00 in0.0 mm 0.00 in0.0 mm
12:02 AM 61.9°F16.6°C 56.7°F13.7°C 83% Calm Calm -- 29.89 in1012.2 mb 0.00 in0.0 mm 0.00 in0.0 mm 0.00 in0.0 mm
12:01 AM 61.9°F16.6°C 56.7°F13.7°C 83% Calm Calm -- 29.89 in1012.2 mb 0.00 in0.0 mm 0.00 in0.0 mm 0.00 in0.0 mm
12:00 AM 62.1°F16.7°C 56.8°F13.8°C 83% Calm Calm -- 29.89 in1012.2 mb 0.00 in0.0 mm 0.00 in0.0 mm 0.00 in0.0 mm